createdAt,value
2022-10-13T00:00:08.200Z,16.33
2022-10-13T00:02:39.383Z,19.63
2022-10-13T00:05:16.680Z,22.73
2022-10-13T00:08:23.244Z,19.92
2022-10-13T00:11:39.921Z,18.17
2022-10-13T00:21:38.715Z,14.70
2022-10-13T00:24:21.573Z,18.27
2022-10-13T00:27:48.246Z,19.92
2022-10-13T00:31:05.659Z,17.90
2022-10-13T00:34:55.160Z,19.42
2022-10-13T00:37:22.497Z,18.58
2022-10-13T00:39:49.691Z,19.83
2022-10-13T00:42:18.201Z,17.98
2022-10-13T00:45:07.343Z,17.30
2022-10-13T00:47:50.829Z,19.45
2022-10-13T00:50:25.894Z,19.80
2022-10-13T00:52:57.433Z,23.13
2022-10-13T00:55:30.519Z,19.83
2022-10-13T00:58:05.458Z,19.25
2022-10-13T01:00:35.808Z,20.73
2022-10-13T01:03:03.355Z,21.95
2022-10-13T01:05:31.201Z,24.05
2022-10-13T01:08:01.118Z,19.85
2022-10-13T01:10:50.562Z,14.45
2022-10-13T01:13:35.974Z,18.00
2022-10-13T01:16:23.910Z,15.38
2022-10-13T01:19:20.054Z,19.20
2022-10-13T01:22:07.279Z,22.98
2022-10-13T01:25:13.273Z,17.10
2022-10-13T01:28:09.199Z,14.85
2022-10-13T01:30:51.055Z,18.58
2022-10-13T01:33:30.195Z,17.92
2022-10-13T01:36:08.655Z,21.02
2022-10-13T01:38:47.422Z,18.92
2022-10-13T01:41:26.912Z,16.75
2022-10-13T01:44:29.530Z,22.95
2022-10-13T01:47:06.324Z,17.90
2022-10-13T01:49:35.838Z,17.33
2022-10-13T01:52:07.709Z,21.80
2022-10-13T01:54:35.121Z,22.83
2022-10-13T01:57:03.875Z,17.92
2022-10-13T01:59:36.163Z,22.05
2022-10-13T02:02:21.395Z,25.67
2022-10-13T02:05:15.503Z,19.27
2022-10-13T02:08:01.158Z,18.42
2022-10-13T02:10:50.262Z,22.75
2022-10-13T02:13:20.445Z,27.25
2022-10-13T02:15:51.763Z,25.88
2022-10-13T02:18:26.383Z,22.13
2022-10-13T02:20:55.332Z,21.65
2022-10-13T02:23:22.679Z,20.75
2022-10-13T02:25:51.929Z,22.13
2022-10-13T02:28:19.697Z,22.02
2022-10-13T02:30:47.179Z,26.30
2022-10-13T02:33:15.354Z,26.60
2022-10-13T02:35:43.432Z,25.27
2022-10-13T02:38:11.105Z,25.63
2022-10-13T02:40:39.206Z,29.58
2022-10-13T02:43:18.524Z,24.98
2022-10-13T02:45:56.739Z,30.10
2022-10-13T02:51:40.116Z,22.90
2022-10-13T02:55:02.189Z,27.17
2022-10-13T02:57:46.262Z,27.77
2022-10-13T03:03:31.790Z,23.63
2022-10-13T03:07:14.029Z,29.05
2022-10-13T03:13:38.096Z,25.35
2022-10-13T03:16:18.269Z,28.67
2022-10-13T03:19:25.293Z,26.67
2022-10-13T03:22:00.017Z,21.35
2022-10-13T03:24:33.091Z,25.40
2022-10-13T03:27:46.651Z,31.90
2022-10-13T03:30:14.209Z,32.17
2022-10-13T03:32:44.261Z,23.55
2022-10-13T03:35:11.470Z,26.13
2022-10-13T03:37:38.516Z,24.80
2022-10-13T03:40:06.944Z,24.50
2022-10-13T03:42:39.365Z,27.10
2022-10-13T03:47:36.897Z,25.65
2022-10-13T03:50:05.572Z,26.95
2022-10-13T03:52:36.291Z,24.15
2022-10-13T03:55:04.079Z,28.77
2022-10-13T03:57:36.922Z,22.52
2022-10-13T04:00:19.490Z,30.42
2022-10-13T04:02:54.462Z,27.35
2022-10-13T04:05:49.978Z,28.73
2022-10-13T04:08:33.101Z,28.23
2022-10-13T04:11:13.352Z,30.95
2022-10-13T04:14:14.729Z,26.15
2022-10-13T04:16:50.297Z,30.20
2022-10-13T04:19:35.862Z,22.55
2022-10-13T04:22:29.663Z,25.35
2022-10-13T04:28:06.765Z,23.50
2022-10-13T04:31:03.628Z,24.45
2022-10-13T04:34:53.573Z,26.10
2022-10-13T04:37:44.908Z,25.23
2022-10-13T04:40:23.710Z,29.40
2022-10-13T04:42:53.824Z,26.88
2022-10-13T04:45:47.198Z,25.48
2022-10-13T04:48:56.829Z,22.27
2022-10-13T04:52:15.079Z,26.88
2022-10-13T04:54:52.926Z,34.63
2022-10-13T04:57:35.332Z,28.63
2022-10-13T05:00:19.504Z,27.08
2022-10-13T05:02:46.734Z,25.48
2022-10-13T05:05:15.662Z,27.85
2022-10-13T05:07:45.291Z,27.75
2022-10-13T05:10:13.542Z,20.08
2022-10-13T05:12:47.734Z,22.05
2022-10-13T05:15:16.849Z,29.75
2022-10-13T05:17:45.564Z,26.75
2022-10-13T05:20:12.943Z,19.52
2022-10-13T05:22:40.959Z,27.40
2022-10-13T05:25:09.132Z,26.17
2022-10-13T05:27:36.280Z,29.08
2022-10-13T05:30:06.027Z,26.02
2022-10-13T05:32:35.588Z,23.23
2022-10-13T05:35:02.843Z,23.05
2022-10-13T05:37:30.448Z,24.05
2022-10-13T05:43:06.888Z,24.75
2022-10-13T05:45:35.286Z,26.08
2022-10-13T05:48:03.479Z,20.30
2022-10-13T05:50:30.426Z,27.85
2022-10-13T05:52:59.429Z,24.55
2022-10-13T05:55:27.594Z,25.20
2022-10-13T05:58:02.380Z,25.17
2022-10-13T06:00:36.598Z,22.90
2022-10-13T06:03:09.727Z,24.13
2022-10-13T06:05:49.053Z,28.38
2022-10-13T06:08:16.518Z,22.05
2022-10-13T06:10:45.528Z,25.02
2022-10-13T06:13:13.602Z,21.35
2022-10-13T06:15:40.505Z,22.38
2022-10-13T06:18:09.704Z,23.73
2022-10-13T06:20:37.341Z,28.52
2022-10-13T06:23:05.628Z,21.80
2022-10-13T06:25:32.964Z,19.85
2022-10-13T06:28:00.956Z,22.08
2022-10-13T06:30:28.404Z,27.95
2022-10-13T06:32:56.616Z,32.67
2022-10-13T06:35:24.773Z,32.97
2022-10-13T06:37:53.274Z,22.48
2022-10-13T06:40:20.304Z,22.98
2022-10-13T06:42:51.669Z,25.35
2022-10-13T06:45:22.559Z,31.95
2022-10-13T06:47:52.624Z,15.90
2022-10-13T06:50:19.571Z,28.65
2022-10-13T06:52:46.573Z,19.58
2022-10-13T06:55:13.603Z,20.83
2022-10-13T06:57:40.702Z,20.40
2022-10-13T07:00:09.170Z,29.25
2022-10-13T07:02:37.801Z,22.73
2022-10-13T07:05:06.011Z,24.42
2022-10-13T07:07:33.363Z,25.77
2022-10-13T07:10:01.332Z,18.73
2022-10-13T07:12:28.527Z,27.73
2022-10-13T07:14:55.528Z,20.55
2022-10-13T07:17:22.822Z,19.35
2022-10-13T07:19:50.233Z,23.33
2022-10-13T07:22:17.480Z,21.20
2022-10-13T07:24:44.929Z,19.77
2022-10-13T07:27:12.212Z,20.17
2022-10-13T07:29:39.477Z,20.40
2022-10-13T07:32:07.355Z,23.88
2022-10-13T07:34:34.994Z,20.25
2022-10-13T07:37:05.871Z,25.38
2022-10-13T07:39:35.214Z,25.27
2022-10-13T07:42:06.206Z,26.35
2022-10-13T07:44:35.430Z,22.40
2022-10-13T07:47:02.290Z,21.60
2022-10-13T07:49:29.353Z,24.50
2022-10-13T07:51:57.483Z,23.63
2022-10-13T07:54:26.626Z,19.90
2022-10-13T07:56:56.820Z,22.15
2022-10-13T07:59:24.724Z,24.58
2022-10-13T08:01:51.813Z,32.35
2022-10-13T08:04:21.132Z,35.70
2022-10-13T08:06:48.210Z,27.02
2022-10-13T08:09:16.194Z,24.88
2022-10-13T08:11:43.172Z,28.50
2022-10-13T08:14:12.426Z,20.85
2022-10-13T08:16:41.931Z,21.92
2022-10-13T08:19:09.296Z,22.25
2022-10-13T08:21:57.719Z,25.52
2022-10-13T08:24:24.273Z,23.50
2022-10-13T08:26:53.158Z,21.27
2022-10-13T08:29:22.946Z,20.92
2022-10-13T08:31:53.575Z,19.65
2022-10-13T08:34:23.780Z,15.25
2022-10-13T08:36:53.705Z,34.72
2022-10-13T08:39:22.363Z,22.48
2022-10-13T08:41:50.242Z,23.77
2022-10-13T08:47:19.285Z,15.48
2022-10-13T08:49:47.274Z,16.38
2022-10-13T08:52:41.952Z,24.65
2022-10-13T08:55:18.025Z,21.95
2022-10-13T08:57:45.548Z,17.15
2022-10-13T09:00:14.253Z,20.55
2022-10-13T09:02:45.563Z,23.10
2022-10-13T09:05:45.648Z,16.60
2022-10-13T09:08:19.601Z,23.02
2022-10-13T09:10:52.147Z,22.20
2022-10-13T09:15:48.588Z,22.63
2022-10-13T09:18:17.129Z,18.92
2022-10-13T09:20:47.071Z,18.92
2022-10-13T09:23:21.216Z,16.33
2022-10-13T09:25:52.034Z,18.92
2022-10-13T09:28:28.546Z,16.98
2022-10-13T09:31:10.286Z,19.20
2022-10-13T09:33:40.514Z,15.63
2022-10-13T09:36:13.665Z,15.23
2022-10-13T09:38:45.074Z,15.98
2022-10-13T09:41:20.881Z,21.67
2022-10-13T09:43:48.361Z,15.45
2022-10-13T09:46:39.789Z,15.93
2022-10-13T09:49:28.702Z,21.30
2022-10-13T09:52:01.952Z,21.05
2022-10-13T09:54:51.232Z,23.80
2022-10-13T09:57:20.876Z,22.23
2022-10-13T09:59:51.922Z,18.30
2022-10-13T10:02:21.360Z,22.05
2022-10-13T10:04:58.555Z,20.25
2022-10-13T10:07:30.036Z,17.88
2022-10-13T10:12:33.292Z,18.67
2022-10-13T10:15:00.888Z,23.35
2022-10-13T10:17:54.581Z,19.05
2022-10-13T10:21:14.677Z,21.25
2022-10-13T10:23:51.492Z,20.85
2022-10-13T10:26:38.050Z,22.45
2022-10-13T10:29:42.835Z,20.35
2022-10-13T10:32:31.259Z,22.00
2022-10-13T10:35:24.912Z,21.95
2022-10-13T10:38:14.684Z,21.67
2022-10-13T10:40:55.949Z,21.67
2022-10-13T10:43:49.940Z,22.55
2022-10-13T10:46:23.516Z,25.10
2022-10-13T10:48:55.306Z,27.23
2022-10-13T10:51:30.366Z,22.30
2022-10-13T10:54:23.878Z,26.35
2022-10-13T10:57:12.711Z,23.77
2022-10-13T11:00:01.852Z,24.63
2022-10-13T11:02:48.245Z,24.27
2022-10-13T11:05:17.457Z,27.33
2022-10-13T11:07:45.553Z,23.80
2022-10-13T11:10:25.376Z,27.13
2022-10-13T11:12:57.850Z,28.70
2022-10-13T11:15:41.318Z,27.48
2022-10-13T11:18:47.146Z,30.45
2022-10-13T11:21:14.626Z,25.15
2022-10-13T11:23:48.029Z,31.23
2022-10-13T11:26:26.129Z,28.67
2022-10-13T11:28:55.950Z,30.75
2022-10-13T11:31:49.401Z,27.73
2022-10-13T11:34:32.411Z,24.73
2022-10-13T11:37:03.446Z,28.00
2022-10-13T11:40:01.060Z,27.23
2022-10-13T11:46:57.213Z,27.25
2022-10-13T11:49:36.120Z,29.63
2022-10-13T11:52:27.329Z,28.20
2022-10-13T11:55:37.284Z,28.00
2022-10-13T11:58:17.105Z,25.55
2022-10-13T12:01:13.117Z,25.25
2022-10-13T12:04:19.787Z,29.52
2022-10-13T12:07:07.683Z,28.40
2022-10-13T12:09:59.230Z,25.90
2022-10-13T12:12:28.327Z,29.48
2022-10-13T12:15:02.633Z,30.73
2022-10-13T12:17:42.648Z,25.02
2022-10-13T12:20:41.862Z,29.55
2022-10-13T12:23:21.238Z,30.10
2022-10-13T12:28:55.993Z,26.20
2022-10-13T12:31:46.297Z,30.13
2022-10-13T12:34:24.592Z,33.97
2022-10-13T12:37:11.027Z,33.05
2022-10-13T12:39:47.931Z,29.52
2022-10-13T12:42:27.471Z,36.30
2022-10-13T12:48:01.918Z,27.73
2022-10-13T12:50:46.041Z,29.00
2022-10-13T12:53:37.144Z,31.47
2022-10-13T12:57:08.415Z,27.13
2022-10-13T13:00:41.345Z,35.08
2022-10-13T13:04:09.017Z,29.08
2022-10-13T13:06:43.895Z,36.33
2022-10-13T13:12:48.366Z,37.78
2022-10-13T13:15:24.345Z,38.33
2022-10-13T13:17:58.752Z,32.63
2022-10-13T13:20:36.781Z,35.35
2022-10-13T13:23:06.815Z,28.33
2022-10-13T13:25:38.381Z,37.65
2022-10-13T13:28:13.165Z,33.67
2022-10-13T13:30:59.288Z,31.80
2022-10-13T13:33:28.505Z,31.33
2022-10-13T13:38:36.615Z,29.45
2022-10-13T13:41:04.206Z,30.70
2022-10-13T13:43:31.680Z,32.38
2022-10-13T13:46:07.450Z,29.92
2022-10-13T13:48:38.413Z,33.35
2022-10-13T13:51:09.658Z,33.20
2022-10-13T13:53:38.904Z,34.28
2022-10-13T13:56:15.563Z,34.00
2022-10-13T13:58:44.801Z,38.63
2022-10-13T14:01:14.558Z,42.08
2022-10-13T14:03:42.003Z,32.22
2022-10-13T14:06:21.171Z,33.53
2022-10-13T14:08:51.228Z,35.22
2022-10-13T14:11:20.336Z,34.67
2022-10-13T14:13:47.542Z,32.58
2022-10-13T14:16:25.660Z,31.02
2022-10-13T14:19:03.105Z,32.63
2022-10-13T14:21:30.228Z,35.28
2022-10-13T14:24:06.816Z,28.30
2022-10-13T14:26:34.006Z,31.70
2022-10-13T14:29:02.364Z,30.17
2022-10-13T14:31:29.892Z,25.85
2022-10-13T14:33:58.014Z,25.08
2022-10-13T14:36:25.564Z,26.45
2022-10-13T14:38:53.269Z,31.55
2022-10-13T14:41:25.039Z,32.30
2022-10-13T14:43:54.679Z,26.35
2022-10-13T14:46:25.130Z,26.42
2022-10-13T14:51:37.218Z,23.83
2022-10-13T14:54:05.055Z,37.63
2022-10-13T14:56:41.041Z,24.90
2022-10-13T14:59:10.385Z,22.65
2022-10-13T15:01:40.548Z,17.30
2022-10-13T15:04:08.355Z,17.40
2022-10-13T15:06:45.065Z,20.92
2022-10-13T15:09:12.945Z,17.25
2022-10-13T15:11:40.227Z,18.75
2022-10-13T15:14:10.341Z,21.85
2022-10-13T15:16:41.736Z,15.35
2022-10-13T15:19:10.138Z,17.00
2022-10-13T15:21:38.041Z,15.77
2022-10-13T15:24:09.286Z,17.30
2022-10-13T15:26:37.477Z,17.42
2022-10-13T15:32:09.650Z,17.75
2022-10-13T15:34:40.222Z,16.35
2022-10-13T15:37:10.487Z,15.02
2022-10-13T15:39:40.957Z,14.52
2022-10-13T15:42:22.165Z,19.45
2022-10-13T15:48:03.301Z,17.50
2022-10-13T15:51:21.729Z,16.88
2022-10-13T15:53:51.128Z,16.92
2022-10-13T15:56:19.330Z,15.77
2022-10-13T15:58:53.990Z,15.35
2022-10-13T16:01:28.169Z,15.50
2022-10-13T16:03:57.146Z,14.77
2022-10-13T16:06:28.186Z,16.15
2022-10-13T16:09:04.393Z,17.13
2022-10-13T16:11:33.048Z,18.83
2022-10-13T16:14:03.271Z,16.25
2022-10-13T16:16:31.731Z,16.63
2022-10-13T16:19:01.862Z,18.80
2022-10-13T16:21:32.702Z,17.25
2022-10-13T16:24:00.247Z,23.65
2022-10-13T16:26:28.110Z,16.63
2022-10-13T16:28:56.001Z,17.20
2022-10-13T16:31:36.480Z,15.80
2022-10-13T16:34:04.255Z,19.27
2022-10-13T16:36:31.761Z,18.00
2022-10-13T16:39:39.928Z,18.50
2022-10-13T16:42:13.102Z,19.15
2022-10-13T16:45:09.939Z,19.58
2022-10-13T16:47:38.028Z,19.40
2022-10-13T16:52:52.668Z,21.42
2022-10-13T16:55:24.344Z,22.15
2022-10-13T16:58:23.941Z,16.47
2022-10-13T17:01:17.824Z,18.75
2022-10-13T17:03:54.510Z,20.70
2022-10-13T17:06:28.067Z,19.83
2022-10-13T17:09:03.481Z,20.35
2022-10-13T17:11:37.333Z,19.65
2022-10-13T17:14:07.692Z,17.90
2022-10-13T17:16:36.508Z,20.23
2022-10-13T17:19:12.425Z,20.25
2022-10-13T17:21:41.634Z,17.83
2022-10-13T17:24:11.989Z,24.80
2022-10-13T17:26:43.460Z,19.52
2022-10-13T17:29:13.175Z,19.20
2022-10-13T17:31:40.164Z,22.83
2022-10-13T17:34:09.528Z,24.83
2022-10-13T17:36:40.611Z,20.08
2022-10-13T17:39:15.098Z,25.90
2022-10-13T17:41:48.210Z,20.05
2022-10-13T17:44:26.360Z,22.48
2022-10-13T17:46:56.695Z,22.30
2022-10-13T17:49:24.624Z,22.30
2022-10-13T17:51:54.303Z,24.55
2022-10-13T17:54:26.649Z,21.30
2022-10-13T17:59:24.426Z,23.70
2022-10-13T18:01:51.716Z,25.90
2022-10-13T18:04:19.540Z,24.60
2022-10-13T18:06:50.005Z,23.08
2022-10-13T18:09:21.169Z,24.50
2022-10-13T18:11:54.602Z,24.42
2022-10-13T18:14:25.702Z,24.40
2022-10-13T18:16:58.109Z,28.27
2022-10-13T18:19:25.335Z,31.17
2022-10-13T18:21:55.783Z,29.65
2022-10-13T18:24:27.005Z,27.20
2022-10-13T18:26:57.926Z,26.08
2022-10-13T18:29:28.861Z,31.65
2022-10-13T18:32:00.226Z,27.98
2022-10-13T18:34:28.062Z,28.33
2022-10-13T18:36:56.041Z,24.40
2022-10-13T18:39:25.941Z,25.92
2022-10-13T18:41:54.284Z,22.50
2022-10-13T18:44:25.353Z,29.20
2022-10-13T18:46:56.929Z,25.23
2022-10-13T18:55:02.594Z,24.42
2022-10-13T18:57:31.880Z,21.15
2022-10-13T19:00:01.115Z,23.90
2022-10-13T19:02:37.594Z,20.48
2022-10-13T19:06:10.749Z,19.60
2022-10-13T19:08:42.647Z,21.85
2022-10-13T19:11:18.360Z,20.75
2022-10-13T19:13:54.011Z,18.42
2022-10-13T19:16:29.811Z,18.50
2022-10-13T19:18:59.143Z,19.40
2022-10-13T19:21:28.987Z,23.67
2022-10-13T19:29:39.496Z,20.98
2022-10-13T19:32:10.587Z,20.20
2022-10-13T19:34:39.887Z,22.70
2022-10-13T19:37:09.443Z,22.02
2022-10-13T19:39:38.967Z,21.05
2022-10-13T19:42:06.184Z,23.10
2022-10-13T19:44:33.182Z,26.90
2022-10-13T19:47:00.186Z,17.73
2022-10-13T19:49:28.381Z,22.42
2022-10-13T19:51:56.618Z,18.45
2022-10-13T19:54:24.588Z,20.42
2022-10-13T19:56:53.834Z,19.58
2022-10-13T19:59:21.796Z,19.30
2022-10-13T20:01:52.942Z,20.83
2022-10-13T20:07:48.346Z,22.20
2022-10-13T20:10:15.522Z,20.95
2022-10-13T20:12:43.586Z,19.88
2022-10-13T20:15:11.371Z,19.23
2022-10-13T20:17:40.475Z,18.73
2022-10-13T20:20:08.896Z,25.17
2022-10-13T20:22:36.127Z,20.23
2022-10-13T20:25:09.078Z,19.08
2022-10-13T20:27:37.133Z,21.25
2022-10-13T20:30:04.655Z,19.33
2022-10-13T20:32:32.872Z,21.75
2022-10-13T20:35:03.290Z,22.13
2022-10-13T20:37:37.758Z,23.63
2022-10-13T20:40:23.337Z,21.63
2022-10-13T20:43:21.204Z,19.73
2022-10-13T20:46:22.008Z,21.35
2022-10-13T20:55:41.978Z,18.95
2022-10-13T20:58:14.410Z,24.10
2022-10-13T21:00:45.629Z,23.45
2022-10-13T21:03:28.920Z,21.55
2022-10-13T21:09:07.750Z,22.50
2022-10-13T21:11:36.857Z,26.98
2022-10-13T21:14:08.518Z,27.88
2022-10-13T21:16:38.222Z,23.98
2022-10-13T21:19:16.698Z,25.05
2022-10-13T21:21:49.472Z,24.05
2022-10-13T21:27:16.437Z,25.83
2022-10-13T21:29:44.852Z,24.63
2022-10-13T21:32:59.819Z,26.23
2022-10-13T21:35:44.559Z,32.20
2022-10-13T21:38:16.381Z,30.80
2022-10-13T21:40:49.392Z,31.58
2022-10-13T21:43:23.698Z,29.58
2022-10-13T21:45:51.085Z,25.75
2022-10-13T21:48:18.239Z,31.63
2022-10-13T21:50:47.473Z,29.73
2022-10-13T21:53:15.570Z,26.70
2022-10-13T21:55:42.755Z,27.48
2022-10-13T21:58:10.355Z,29.92
2022-10-13T22:00:46.720Z,26.30
2022-10-13T22:03:17.268Z,23.65
2022-10-13T22:05:48.423Z,24.85
2022-10-13T22:09:28.662Z,23.27
2022-10-13T22:11:59.726Z,26.02
2022-10-13T22:14:28.081Z,26.17
2022-10-13T22:16:58.201Z,25.58
2022-10-13T22:19:41.895Z,25.23
2022-10-13T22:25:45.387Z,23.67
2022-10-13T22:28:13.738Z,27.70
2022-10-13T22:30:48.698Z,25.52
2022-10-13T22:33:18.377Z,26.00
2022-10-13T22:35:53.362Z,25.40
2022-10-13T22:38:28.220Z,28.73
2022-10-13T22:41:37.428Z,27.23
2022-10-13T22:44:05.025Z,26.63
2022-10-13T22:46:37.292Z,24.98
2022-10-13T22:49:05.270Z,29.65
2022-10-13T22:51:41.414Z,27.75
2022-10-13T22:54:30.487Z,30.80
2022-10-13T22:57:05.739Z,26.65
2022-10-13T22:59:33.694Z,26.67
2022-10-13T23:02:00.760Z,23.77
2022-10-13T23:04:28.635Z,27.45
2022-10-13T23:06:55.684Z,27.60
2022-10-13T23:09:25.793Z,26.33
2022-10-13T23:11:59.674Z,24.98
2022-10-13T23:14:29.858Z,25.77
2022-10-13T23:16:57.465Z,24.40
2022-10-13T23:19:24.730Z,24.88
2022-10-13T23:21:52.027Z,25.05
2022-10-13T23:24:20.717Z,24.33
2022-10-13T23:28:05.071Z,25.58
2022-10-13T23:30:32.735Z,23.20
2022-10-13T23:33:15.073Z,24.65
2022-10-13T23:36:00.910Z,22.00
2022-10-13T23:38:43.617Z,22.48
2022-10-13T23:41:15.402Z,23.10
2022-10-13T23:43:43.064Z,23.02
2022-10-13T23:46:13.229Z,25.02
2022-10-13T23:48:44.673Z,23.83
2022-10-13T23:51:18.018Z,25.42
2022-10-13T23:53:45.699Z,24.98
2022-10-13T23:56:15.595Z,24.50
2022-10-13T23:58:44.498Z,24.55
